Webcam 1 more information Webcam 1


Webcam 2 more information Webcam 2


altri nostri siti meteo:

Pomeziameteo 1Sito sul meteo

Pomeziameteo DashboardSito sul meteo

Caput FrigorisSito sul meteo

BarcellonameteoSito sul meteo

MeteoipassiSito sul meteo

ViterbometeoSito sul meteo

MeteotortoretoSito sul meteo

Stazione LineameteoSito sul meteo



Nessuna attenzione particolare richiesta.    Non ci sono allerte meteo

Report METAR

   
LIBP - Pescara
Dati ricevuti: 18-02-2019 09:50
Sereno  
Sereno  
   Vento: SW 9.3 km/h
Vento: SW 9.3 km/h
Temperatura: 11°C
P.to Rugiada: 0°C
Umidita: 47%
Barometro: 1025 hPa
Visibilita: oltre 10 km
dettagli cloud: Sereno
LIBP 180850Z 23005KT CAVOK 11/M00 Q1025
LIRZ - Perugia
Dati ricevuti: 18-02-2019 09:50
Sereno  
Sereno  
   Vento: Variabile 1.9 km/h
Vento: Variabile 1.9 km/h
Temperatura: 5°C
P.to Rugiada: 0°C
Umidita: 70%
Barometro: 1027 hPa
Visibilita: oltre 10 km
dettagli cloud: Sereno
LIRZ 180850Z VRB01KT CAVOK 05/00 Q1027
LIQN - Rieti
Dati ricevuti: 17-02-2019 17:50
DATI Obsoleti
Sereno  
Sereno  
   Vento: West 7.4 km/h
Vento: West 7.4 km/h
Temperatura: 13°C
P.to Rugiada: -2°C
Umidita: 36%
Barometro: 1025 hPa
Visibilita: oltre 10 km
dettagli cloud: Sereno
LIQN 171650Z 26004KT CAVOK 13/M02 Q1025
LIPY - Falconara
Dati ricevuti: 18-02-2019 09:50
Sereno  
Sereno  
   Vento: Variabile 3.7 km/h
Vento: Variabile 3.7 km/h
Temperatura: 11°C
P.to Rugiada: 4°C
Umidita: 62%
Barometro: 1025 hPa
Visibilita: oltre 10 km
dettagli cloud: Sereno
LIPY 180850Z VRB02KT CAVOK 11/04 Q1025
  

Script sviluppato da  Saratoga-weather.org Adattato per il modello da  Weerstation Leuven

Potete trovare le nostre info meteo anche a:

Weather Underground

AWEKAS

Citizen Weather Observer Program (CWOP)

HAMweather, WeatherForYou, PWS Weather

Strumentazione usata:

Stazione meteo
Oregon 928

Programma gestore dati meteo
WVIEW

Server per i dati meteo
Pc-WDS5

Oregon 928

WVIEW

Pc-WDS5